Time;durP1;ratioP1;P1;durP2;ratioP2;P2;SDS_P1;SDS_P2;PMS_P1;PMS_P2;Temp;Humidity;BMP_temperature;BMP_pressure;BME280_temperature;BME280_humidity;BME280_pressure;Samples;Min_cycle;Max_cycle;Signal;HPM_P1;HPM_P2
2023/02/22 00:00:35;;;;;;;3.35;3.05;;;20.30;82.90;;;;;;5042049;28;20261;-56
2023/02/22 00:03:02;;;;;;;4.78;3.05;;;20.20;82.80;;;;;;5047825;28;20207;-55
2023/02/22 00:05:30;;;;;;;3.20;2.75;;;20.20;82.80;;;;;;5046230;28;20529;-53
2023/02/22 00:07:59;;;;;;;6.72;2.80;;;20.20;82.70;;;;;;5042468;28;20200;-57
2023/02/22 00:10:27;;;;;;;3.75;3.30;;;20.20;82.60;;;;;;5046855;28;20206;-55
2023/02/22 00:12:55;;;;;;;3.35;3.03;;;20.20;82.50;;;;;;5048091;28;20207;-55
2023/02/22 00:15:26;;;;;;;3.38;2.78;;;20.20;82.50;;;;;;5048335;28;20195;-56
2023/02/22 00:17:53;;;;;;;3.10;2.78;;;20.20;82.50;;;;;;5038474;28;20223;-55
2023/02/22 00:20:22;;;;;;;2.88;2.67;;;20.20;82.40;;;;;;5049461;28;20196;-59
2023/02/22 00:22:50;;;;;;;3.47;3.15;;;20.20;82.50;;;;;;5055634;28;20690;-60
2023/02/22 00:25:19;;;;;;;3.28;2.97;;;20.20;82.40;;;;;;5043230;28;20698;-59
2023/02/22 00:27:47;;;;;;;3.35;3.05;;;20.10;82.30;;;;;;5049312;28;20267;-55
2023/02/22 00:30:17;;;;;;;3.20;2.90;;;20.10;82.20;;;;;;5043409;28;20219;-55
2023/02/22 00:32:45;;;;;;;13.02;3.00;;;20.10;82.20;;;;;;5046686;28;20207;-56
2023/02/22 00:35:12;;;;;;;4.05;3.30;;;20.10;82.20;;;;;;5048842;28;20203;-57
2023/02/22 00:37:40;;;;;;;3.55;3.15;;;20.10;82.20;;;;;;5047994;28;20211;-56
2023/02/22 00:40:08;;;;;;;3.22;2.92;;;20.10;82.20;;;;;;5044445;28;20200;-62
2023/02/22 00:42:37;;;;;;;3.17;2.88;;;20.10;82.10;;;;;;5048080;28;20196;-60
2023/02/22 00:45:04;;;;;;;4.85;4.35;;;20.10;82.10;;;;;;5048009;28;20208;-55
2023/02/22 00:47:31;;;;;;;3.28;2.97;;;20.10;82.10;;;;;;5045288;28;20689;-55
2023/02/22 00:49:59;;;;;;;3.95;2.97;;;20.10;82.00;;;;;;5047599;28;20204;-57
2023/02/22 00:52:26;;;;;;;4.45;2.50;;;20.10;82.00;;;;;;5048251;28;20198;-59
2023/02/22 00:54:53;;;;;;;4.03;2.65;;;20.10;82.00;;;;;;5040516;28;20195;-57
2023/02/22 00:57:20;;;;;;;3.08;2.83;;;20.10;82.00;;;;;;5046312;28;20268;-56
2023/02/22 00:59:48;;;;;;;2.85;2.65;;;20.10;82.00;;;;;;5048317;28;20620;-53
2023/02/22 01:02:15;;;;;;;2.97;2.72;;;20.10;82.00;;;;;;5046063;28;20200;-56
2023/02/22 01:04:41;;;;;;;3.53;2.65;;;20.10;82.00;;;;;;5046685;28;20199;-58
2023/02/22 01:07:08;;;;;;;3.28;2.97;;;20.10;82.00;;;;;;5043164;28;20207;-53
2023/02/22 01:09:35;;;;;;;3.25;2.95;;;20.10;82.00;;;;;;5047809;28;20195;-58
2023/02/22 01:12:02;;;;;;;3.97;3.67;;;20.00;81.80;;;;;;5046955;28;20210;-60
2023/02/22 01:14:29;;;;;;;2.80;2.60;;;20.00;81.80;;;;;;5044449;28;20202;-52
2023/02/22 01:16:57;;;;;;;4.00;3.70;;;20.00;81.80;;;;;;5042670;28;20219;-59
2023/02/22 01:19:24;;;;;;;3.15;2.45;;;20.00;81.80;;;;;;5046886;28;20192;-53
2023/02/22 01:21:51;;;;;;;3.00;2.80;;;20.00;81.70;;;;;;5042884;28;20724;-66
2023/02/22 01:24:19;;;;;;;4.60;2.90;;;20.00;81.80;;;;;;5040333;28;20203;-58
2023/02/22 01:26:51;;;;;;;3.58;2.60;;;20.00;81.70;;;;;;5037942;28;22129;-57
2023/02/22 01:29:19;;;;;;;2.70;2.50;;;20.00;82.50;;;;;;5041915;28;20198;-66
2023/02/22 01:31:53;;;;;;;2.95;2.65;;;20.00;81.70;;;;;;5037967;28;20197;-55
2023/02/22 01:34:22;;;;;;;3.85;2.38;;;20.00;81.70;;;;;;5044245;28;20722;-62
2023/02/22 01:36:49;;;;;;;3.22;2.95;;;20.00;81.60;;;;;;5046023;28;20202;-57
2023/02/22 01:39:16;;;;;;;2.90;2.63;;;20.00;81.70;;;;;;5044633;28;20207;-58
2023/02/22 01:41:43;;;;;;;2.42;2.20;;;20.00;81.70;;;;;;5041875;28;20231;-64
2023/02/22 01:44:25;;;;;;;4.15;2.67;;;20.00;81.70;;;;;;5047561;28;20618;-61
2023/02/22 01:46:53;;;;;;;2.80;2.60;;;20.00;81.70;;;;;;5043346;28;20199;-57
2023/02/22 01:49:22;;;;;;;3.47;3.00;;;19.90;81.60;;;;;;5035231;28;20199;-55
2023/02/22 01:51:52;;;;;;;3.08;2.70;;;19.90;81.50;;;;;;5045060;28;20203;-56
2023/02/22 01:54:23;;;;;;;3.15;2.90;;;19.90;81.60;;;;;;5038279;28;20195;-53
2023/02/22 01:56:54;;;;;;;2.83;2.55;;;19.90;81.50;;;;;;5054078;28;20203;-58
2023/02/22 01:59:21;;;;;;;2.75;2.55;;;19.90;81.50;;;;;;5049445;28;20192;-53
2023/02/22 02:01:48;;;;;;;3.35;3.05;;;19.90;81.50;;;;;;5045287;28;20203;-56
2023/02/22 02:04:24;;;;;;;3.10;2.80;;;19.90;81.60;;;;;;5045960;28;20652;-57
2023/02/22 02:06:52;;;;;;;4.45;3.60;;;19.90;81.50;;;;;;5046938;28;20203;-56
2023/02/22 02:09:25;;;;;;;2.83;2.63;;;19.90;81.50;;;;;;5040308;28;20222;-54
2023/02/22 02:11:53;;;;;;;2.83;2.60;;;19.90;82.20;;;;;;5046529;28;20226;-59
2023/02/22 02:14:19;;;;;;;2.67;2.47;;;19.90;81.50;;;;;;5046380;28;20674;-56
2023/02/22 02:16:49;;;;;;;2.97;2.67;;;19.90;81.50;;;;;;5046009;28;20207;-58
2023/02/22 02:19:22;;;;;;;2.63;2.42;;;19.90;81.50;;;;;;5046580;28;20234;-52
2023/02/22 02:22:35;;;;;;;2.53;2.33;;;19.90;81.50;;;;;;5042330;28;20223;-54
2023/02/22 02:25:43;;;;;;;3.00;2.63;;;19.90;81.40;;;;;;5006255;28;20199;-63
2023/02/22 02:28:39;;;;;;;2.80;2.60;;;19.90;81.50;;;;;;4966374;28;20736;-56
2023/02/22 02:31:43;;;;;;;3.53;3.22;;;19.90;81.50;;;;;;4963200;28;20249;-56
2023/02/22 02:34:20;;;;;;;2.80;2.60;;;19.90;81.50;;;;;;5042666;28;20206;-54
2023/02/22 02:36:56;;;;;;;2.83;2.63;;;19.90;81.40;;;;;;5046178;28;20253;-56
2023/02/22 02:39:28;;;;;;;3.17;2.95;;;19.90;81.40;;;;;;5049353;28;20223;-54
2023/02/22 02:41:58;;;;;;;2.50;2.30;;;19.90;81.40;;;;;;5043351;28;20210;-56
2023/02/22 02:44:32;;;;;;;3.65;3.35;;;19.90;81.40;;;;;;5048132;28;20706;-59
2023/02/22 02:47:02;;;;;;;2.30;2.10;;;19.90;81.40;;;;;;5043205;28;20552;-56
2023/02/22 02:49:35;;;;;;;3.50;2.50;;;19.90;81.40;;;;;;5045784;28;20204;-55
2023/02/22 02:52:04;;;;;;;2.97;2.75;;;19.90;81.40;;;;;;5039480;28;20673;-53
2023/02/22 02:54:31;;;;;;;2.17;1.98;;;19.80;81.20;;;;;;5044449;28;20682;-61
2023/02/22 02:56:58;;;;;;;2.47;2.28;;;19.90;81.40;;;;;;5049731;28;20199;-56
2023/02/22 02:59:27;;;;;;;2.65;2.45;;;19.80;81.20;;;;;;5041154;28;20235;-57
2023/02/22 03:02:10;;;;;;;2.85;2.65;;;19.80;81.20;;;;;;5042959;28;20200;-56
2023/02/22 03:05:06;;;;;;;2.65;2.45;;;19.80;81.20;;;;;;5041136;28;20286;-57
2023/02/22 03:07:55;;;;;;;3.15;2.55;;;19.80;81.30;;;;;;5043765;28;20235;-58
2023/02/22 03:10:36;;;;;;;2.55;2.35;;;19.80;81.20;;;;;;5045314;28;20203;-55
2023/02/22 03:13:13;;;;;;;2.75;2.55;;;19.80;81.30;;;;;;5048574;28;20199;-56
2023/02/22 03:15:50;;;;;;;2.30;2.10;;;19.80;82.00;;;;;;5043857;28;20199;-55
2023/02/22 03:18:27;;;;;;;2.55;2.35;;;19.80;81.20;;;;;;5047901;28;20253;-55
2023/02/22 03:21:00;;;;;;;2.53;2.33;;;19.80;81.20;;;;;;5045662;28;20210;-50
2023/02/22 03:23:35;;;;;;;2.75;2.50;;;19.80;81.20;;;;;;5040392;28;20192;-56
2023/02/22 03:26:07;;;;;;;2.55;2.35;;;19.80;81.20;;;;;;5050867;28;20578;-54
2023/02/22 03:28:39;;;;;;;2.40;2.20;;;19.80;82.00;;;;;;5048477;28;20199;-57
2023/02/22 03:31:11;;;;;;;2.88;2.67;;;19.80;81.10;;;;;;5046627;28;20201;-54
2023/02/22 03:33:42;;;;;;;2.72;2.47;;;19.80;81.20;;;;;;5043529;28;20192;-54
2023/02/22 03:36:14;;;;;;;2.45;2.25;;;19.80;81.20;;;;;;5049210;28;20203;-62
2023/02/22 03:38:44;;;;;;;2.50;2.30;;;19.80;81.10;;;;;;5048178;28;20242;-60
2023/02/22 03:41:13;;;;;;;2.30;2.10;;;19.80;81.10;;;;;;5050570;28;20214;-56
2023/02/22 03:43:44;;;;;;;2.35;2.15;;;19.70;81.80;;;;;;5047477;28;20204;-57
2023/02/22 03:46:13;;;;;;;3.08;2.55;;;19.70;81.00;;;;;;5048799;28;20587;-57
2023/02/22 03:48:46;;;;;;;2.70;2.50;;;19.70;81.00;;;;;;5047779;28;20218;-59
2023/02/22 03:51:16;;;;;;;2.78;2.58;;;19.80;81.10;;;;;;5048736;28;20202;-58
2023/02/22 03:53:44;;;;;;;2.25;2.05;;;19.70;81.00;;;;;;5048476;28;20208;-54
2023/02/22 03:56:18;;;;;;;2.38;2.17;;;19.80;81.10;;;;;;5049374;28;20223;-55
2023/02/22 03:58:47;;;;;;;3.50;3.20;;;19.80;81.10;;;;;;5049683;28;20281;-61
2023/02/22 04:01:14;;;;;;;2.55;2.25;;;19.70;80.90;;;;;;5047269;28;20238;-61
2023/02/22 04:03:41;;;;;;;2.88;2.67;;;19.70;80.90;;;;;;5040984;28;20737;-57
2023/02/22 04:06:08;;;;;;;2.60;2.40;;;19.70;80.90;;;;;;5038682;28;20204;-54
2023/02/22 04:08:36;;;;;;;1.98;1.85;;;19.70;80.90;;;;;;5049804;28;20196;-52
2023/02/22 04:11:04;;;;;;;2.63;2.42;;;19.70;80.90;;;;;;5042940;28;20210;-60
2023/02/22 04:13:30;;;;;;;2.20;2.00;;;19.70;81.00;;;;;;5048727;28;20467;-53
2023/02/22 04:15:57;;;;;;;2.40;2.20;;;19.70;80.90;;;;;;5047357;28;20199;-59
2023/02/22 04:18:24;;;;;;;2.35;2.15;;;19.70;80.90;;;;;;5046005;28;20216;-60
2023/02/22 04:20:51;;;;;;;2.78;2.53;;;19.70;81.20;;;;;;5049549;28;20269;-59
2023/02/22 04:23:18;;;;;;;2.60;2.40;;;19.70;80.90;;;;;;5041287;28;20219;-57
2023/02/22 04:25:46;;;;;;;2.65;2.45;;;19.70;81.00;;;;;;5045410;28;20458;-54
2023/02/22 04:28:13;;;;;;;2.72;2.53;;;19.70;80.90;;;;;;5047111;28;20204;-58
2023/02/22 04:30:39;;;;;;;2.55;2.35;;;19.70;80.90;;;;;;5047836;28;20209;-62
2023/02/22 04:33:06;;;;;;;3.05;2.80;;;19.70;80.90;;;;;;5050514;28;20670;-56
2023/02/22 04:35:33;;;;;;;2.22;2.03;;;19.70;80.90;;;;;;5047251;28;20198;-56
2023/02/22 04:37:59;;;;;;;2.28;2.08;;;19.70;81.70;;;;;;5049749;28;20220;-64
2023/02/22 04:40:26;;;;;;;2.40;2.20;;;19.70;80.90;;;;;;5046354;28;20195;-56
2023/02/22 04:42:54;;;;;;;2.63;2.42;;;19.70;80.90;;;;;;5049715;28;20203;-56
2023/02/22 04:45:21;;;;;;;2.40;2.20;;;19.70;80.90;;;;;;5047000;28;20547;-59
2023/02/22 04:47:47;;;;;;;2.40;2.20;;;19.70;81.70;;;;;;5038930;28;20195;-59
2023/02/22 04:50:16;;;;;;;2.60;2.40;;;19.70;80.80;;;;;;5047229;28;20232;-57
2023/02/22 04:52:42;;;;;;;2.40;2.20;;;19.70;80.90;;;;;;5042039;28;20222;-55
2023/02/22 04:55:09;;;;;;;2.60;2.25;;;19.70;80.90;;;;;;5047695;28;20196;-52
2023/02/22 04:57:36;;;;;;;2.53;2.30;;;19.70;80.90;;;;;;5050588;28;20230;-55
2023/02/22 05:00:06;;;;;;;2.55;2.35;;;19.70;80.80;;;;;;5045456;28;20226;-52
2023/02/22 05:02:32;;;;;;;2.50;2.30;;;19.70;80.80;;;;;;5039552;28;20204;-53
2023/02/22 05:04:59;;;;;;;2.50;2.30;;;19.70;80.80;;;;;;5048293;28;20651;-53
2023/02/22 05:07:26;;;;;;;2.00;1.80;;;19.70;80.80;;;;;;5049234;28;20200;-60
2023/02/22 05:09:52;;;;;;;2.58;2.38;;;19.70;80.80;;;;;;5045920;28;20207;-56
2023/02/22 05:12:20;;;;;;;2.22;2.08;;;19.70;80.80;;;;;;5044444;28;20206;-53
2023/02/22 05:14:46;;;;;;;2.83;2.60;;;19.70;80.80;;;;;;5040940;28;20227;-57
2023/02/22 05:17:15;;;;;;;2.97;2.78;;;19.70;80.80;;;;;;5045900;28;20195;-54
2023/02/22 05:19:41;;;;;;;2.70;2.50;;;19.70;81.50;;;;;;5041798;28;20223;-51
2023/02/22 05:22:08;;;;;;;2.60;2.40;;;19.60;80.60;;;;;;5047691;28;20222;-55
2023/02/22 05:24:35;;;;;;;2.70;2.50;;;19.60;80.70;;;;;;5048456;28;20192;-53
2023/02/22 05:27:02;;;;;;;2.10;2.00;;;19.60;80.70;;;;;;5047343;28;20196;-52
2023/02/22 05:29:28;;;;;;;2.17;1.98;;;19.60;80.70;;;;;;5057258;28;20561;-57
2023/02/22 05:31:57;;;;;;;3.22;2.15;;;19.60;80.60;;;;;;5048359;28;20199;-51
2023/02/22 05:34:25;;;;;;;2.45;2.25;;;19.60;80.60;;;;;;5047888;28;20242;-52
2023/02/22 05:36:51;;;;;;;2.42;2.22;;;19.60;80.60;;;;;;5047207;28;20202;-54
2023/02/22 05:39:18;;;;;;;2.75;2.55;;;19.60;80.60;;;;;;5045459;28;20998;-66
2023/02/22 05:41:45;;;;;;;2.50;2.30;;;19.60;80.60;;;;;;5047762;28;20187;-54
2023/02/22 05:44:11;;;;;;;2.35;2.15;;;19.60;80.60;;;;;;5047073;28;20212;-56
2023/02/22 05:46:38;;;;;;;2.42;2.22;;;19.60;80.60;;;;;;5043839;28;20652;-55
2023/02/22 05:49:05;;;;;;;2.17;1.98;;;19.60;80.60;;;;;;5045412;28;20203;-53
2023/02/22 05:51:33;;;;;;;2.42;2.22;;;19.60;80.60;;;;;;5047729;28;20196;-55
2023/02/22 05:54:00;;;;;;;3.55;2.50;;;19.60;80.60;;;;;;5045188;28;20206;-60
2023/02/22 05:56:29;;;;;;;2.80;2.53;;;19.60;80.60;;;;;;5046880;28;20198;-58
2023/02/22 05:58:57;;;;;;;2.30;2.10;;;19.60;81.40;;;;;;5046039;28;20637;-55
2023/02/22 06:01:24;;;;;;;2.63;2.42;;;19.60;80.60;;;;;;5043398;28;20621;-54
2023/02/22 06:03:52;;;;;;;2.13;1.92;;;19.60;80.60;;;;;;5045263;28;20195;-56
2023/02/22 06:06:20;;;;;;;2.50;2.30;;;19.60;80.60;;;;;;5042272;28;20200;-58
2023/02/22 06:08:48;;;;;;;2.90;2.30;;;19.60;80.60;;;;;;5046170;28;20196;-59
2023/02/22 06:11:15;;;;;;;2.25;2.05;;;19.60;80.60;;;;;;5039708;28;20195;-60
2023/02/22 06:13:41;;;;;;;2.67;2.47;;;19.60;80.60;;;;;;5047334;28;20202;-55
2023/02/22 06:16:08;;;;;;;2.88;2.63;;;19.60;81.30;;;;;;5048239;28;20222;-55
2023/02/22 06:18:35;;;;;;;2.45;2.25;;;19.60;80.50;;;;;;5049500;28;20215;-55
2023/02/22 06:21:02;;;;;;;2.35;2.15;;;19.60;80.40;;;;;;5044084;28;20204;-60
2023/02/22 06:23:28;;;;;;;2.45;2.25;;;19.60;80.50;;;;;;5044685;28;20223;-59
2023/02/22 06:25:56;;;;;;;2.78;2.45;;;19.60;80.50;;;;;;5048157;28;20191;-56
2023/02/22 06:28:23;;;;;;;2.38;2.17;;;19.60;80.50;;;;;;5050699;28;20290;-55
2023/02/22 06:30:50;;;;;;;2.40;2.20;;;19.60;80.50;;;;;;5048245;28;20294;-57
2023/02/22 06:33:17;;;;;;;2.30;2.10;;;19.60;80.40;;;;;;5045182;28;20194;-56
2023/02/22 06:35:44;;;;;;;2.40;2.20;;;19.60;80.50;;;;;;5048732;28;20191;-58
2023/02/22 06:38:10;;;;;;;1.95;1.85;;;19.70;80.60;;;;;;5050975;28;20200;-56
2023/02/22 06:40:37;;;;;;;2.88;2.47;;;19.70;80.60;;;;;;5050860;28;20219;-55
2023/02/22 06:43:05;;;;;;;2.28;2.05;;;19.70;80.60;;;;;;5045989;28;20598;-61
2023/02/22 06:45:32;;;;;;;2.28;2.08;;;19.70;80.60;;;;;;5048861;28;20203;-56
2023/02/22 06:47:58;;;;;;;2.33;2.13;;;19.70;80.60;;;;;;5051951;28;20599;-59
2023/02/22 06:50:28;;;;;;;2.78;2.58;;;19.70;80.50;;;;;;5042745;28;20191;-56
2023/02/22 06:52:55;;;;;;;2.72;2.25;;;19.70;81.30;;;;;;5040371;28;20291;-57
2023/02/22 06:55:24;;;;;;;2.30;2.10;;;19.70;80.50;;;;;;5050296;28;20191;-57
2023/02/22 06:57:51;;;;;;;2.17;1.98;;;19.70;80.50;;;;;;5047617;28;20577;-62
2023/02/22 07:00:22;;;;;;;2.20;2.00;;;19.60;80.40;;;;;;5047031;28;20223;-56
2023/02/22 07:02:49;;;;;;;2.63;2.30;;;19.70;80.50;;;;;;5050051;28;20188;-57
2023/02/22 07:05:17;;;;;;;1.80;1.70;;;19.60;81.20;;;;;;5050067;28;20202;-58
2023/02/22 07:07:44;;;;;;;2.08;1.90;;;19.60;80.40;;;;;;5048797;28;20198;-58
2023/02/22 07:10:18;;;;;;;1.92;1.83;;;19.70;80.50;;;;;;5045545;28;20202;-64
2023/02/22 07:12:44;;;;;;;2.20;1.90;;;19.70;80.50;;;;;;5051744;28;20199;-57
2023/02/22 07:15:12;;;;;;;2.20;2.00;;;19.70;80.50;;;;;;5048461;28;20202;-60
2023/02/22 07:17:41;;;;;;;1.70;1.60;;;19.70;80.50;;;;;;5044725;28;20199;-60
2023/02/22 07:20:10;;;;;;;1.70;1.60;;;19.70;80.50;;;;;;5047290;28;20742;-61
2023/02/22 07:22:37;;;;;;;4.05;2.50;;;19.70;80.50;;;;;;5046644;28;20222;-56
2023/02/22 07:25:04;;;;;;;1.92;1.83;;;19.80;80.60;;;;;;5050675;28;20208;-61
2023/02/22 07:27:31;;;;;;;2.30;2.08;;;19.80;80.60;;;;;;5046088;28;20287;-64
2023/02/22 07:29:57;;;;;;;1.70;1.60;;;19.80;80.60;;;;;;5046083;28;20206;-62
2023/02/22 07:32:24;;;;;;;2.30;2.10;;;19.80;80.60;;;;;;5048398;28;20206;-58
2023/02/22 07:34:52;;;;;;;2.00;1.90;;;19.80;80.60;;;;;;5049725;28;20234;-63
2023/02/22 07:37:20;;;;;;;2.15;1.83;;;19.80;80.60;;;;;;5043934;28;20199;-59
2023/02/22 07:39:46;;;;;;;2.50;2.30;;;19.80;80.60;;;;;;5043402;28;20220;-59
2023/02/22 07:42:13;;;;;;;2.55;2.35;;;19.80;80.50;;;;;;5049326;28;20195;-65
2023/02/22 07:44:40;;;;;;;1.88;1.67;;;19.80;80.50;;;;;;5043750;28;20208;-56
2023/02/22 07:47:07;;;;;;;1.60;1.40;;;19.90;80.60;;;;;;5049263;28;20199;-59
2023/02/22 07:49:34;;;;;;;2.20;1.90;;;19.90;80.60;;;;;;5047859;28;20211;-59
2023/02/22 07:52:02;;;;;;;2.05;1.95;;;19.90;80.60;;;;;;5049033;28;20573;-57
2023/02/22 07:54:29;;;;;;;2.20;2.00;;;19.90;80.50;;;;;;5041086;28;20206;-58
2023/02/22 07:56:55;;;;;;;1.70;1.60;;;19.90;80.50;;;;;;5047428;28;20203;-59
2023/02/22 07:59:22;;;;;;;1.70;1.55;;;19.90;80.50;;;;;;5041833;28;20212;-52
2023/02/22 08:01:50;;;;;;;1.85;1.70;;;19.90;80.50;;;;;;5043104;28;20207;-63
2023/02/22 08:04:16;;;;;;;2.15;1.95;;;19.90;80.50;;;;;;5045062;28;20279;-56
2023/02/22 08:06:45;;;;;;;1.80;1.70;;;19.90;80.50;;;;;;5051417;28;20191;-58
2023/02/22 08:09:13;;;;;;;1.83;1.73;;;19.90;80.50;;;;;;5048458;28;20204;-62
2023/02/22 08:11:40;;;;;;;2.35;2.15;;;19.90;80.50;;;;;;5046305;28;20199;-63
2023/02/22 08:14:07;;;;;;;1.80;1.70;;;19.90;80.40;;;;;;5046893;28;20204;-58
2023/02/22 08:16:33;;;;;;;2.38;2.17;;;19.90;80.40;;;;;;5045396;28;20655;-61
2023/02/22 08:19:00;;;;;;;2.00;1.63;;;19.90;80.40;;;;;;5046760;28;20203;-62
2023/02/22 08:21:27;;;;;;;2.08;1.92;;;19.90;80.40;;;;;;5047614;28;20571;-57
2023/02/22 08:23:54;;;;;;;2.33;1.83;;;19.90;80.40;;;;;;5047562;28;20196;-63
2023/02/22 08:26:24;;;;;;;2.10;2.00;;;19.90;80.40;;;;;;5046903;28;20200;-57
2023/02/22 08:28:50;;;;;;;2.20;2.00;;;19.90;80.40;;;;;;5051280;28;20285;-58
2023/02/22 08:31:17;;;;;;;1.70;1.60;;;19.90;80.30;;;;;;5040952;28;20196;-56
2023/02/22 08:33:47;;;;;;;2.15;1.95;;;20.00;80.40;;;;;;5042335;28;20200;-60
2023/02/22 08:36:14;;;;;;;1.85;1.70;;;20.00;80.40;;;;;;5044308;28;20231;-61
2023/02/22 08:38:41;;;;;;;2.13;1.92;;;20.00;80.50;;;;;;5041099;28;20627;-55
2023/02/22 08:41:08;;;;;;;1.65;1.55;;;20.00;80.40;;;;;;5045641;28;20235;-59
2023/02/22 08:43:36;;;;;;;2.05;1.75;;;20.00;80.50;;;;;;5047734;28;20200;-58
2023/02/22 08:46:03;;;;;;;1.60;1.50;;;20.00;80.40;;;;;;5047468;28;20195;-58
2023/02/22 08:48:29;;;;;;;2.00;1.80;;;20.00;80.40;;;;;;5055921;28;20677;-56
2023/02/22 08:50:56;;;;;;;1.70;1.60;;;20.00;80.50;;;;;;5037923;28;20223;-61
2023/02/22 08:53:23;;;;;;;2.10;1.95;;;20.00;80.50;;;;;;5047437;28;20196;-57
2023/02/22 08:55:50;;;;;;;1.80;1.70;;;20.00;80.50;;;;;;5047559;28;20203;-64
2023/02/22 08:58:16;;;;;;;2.30;1.90;;;20.00;80.50;;;;;;5045420;28;20195;-60
2023/02/22 09:00:45;;;;;;;1.75;1.65;;;20.00;80.60;;;;;;5045905;28;20222;-63
2023/02/22 09:03:14;;;;;;;1.60;1.50;;;20.00;80.60;;;;;;5046440;28;20287;-64
2023/02/22 09:05:40;;;;;;;1.50;1.38;;;20.00;80.60;;;;;;5046868;28;20199;-60
2023/02/22 09:08:07;;;;;;;1.60;1.50;;;20.00;80.70;;;;;;5046354;28;20196;-60
2023/02/22 09:10:35;;;;;;;1.58;1.48;;;20.00;80.70;;;;;;5041352;28;20196;-61
2023/02/22 09:13:02;;;;;;;1.60;1.40;;;20.00;80.60;;;;;;5044088;28;20283;-57
2023/02/22 09:15:30;;;;;;;1.52;1.42;;;20.10;80.80;;;;;;5045985;28;20247;-63
2023/02/22 09:17:58;;;;;;;1.63;1.42;;;20.10;80.80;;;;;;5048928;28;20195;-61
2023/02/22 09:20:25;;;;;;;1.75;1.65;;;20.10;80.70;;;;;;5041398;28;20223;-60
2023/02/22 09:22:53;;;;;;;1.60;1.50;;;20.10;80.80;;;;;;5050492;28;20223;-57
2023/02/22 09:25:21;;;;;;;1.60;1.50;;;20.10;80.80;;;;;;5047650;28;20536;-61
2023/02/22 09:27:48;;;;;;;2.20;2.03;;;20.10;80.80;;;;;;5050837;28;20196;-57
2023/02/22 09:30:18;;;;;;;1.42;1.30;;;20.10;80.70;;;;;;5047312;28;20215;-61
2023/02/22 09:32:45;;;;;;;2.05;1.85;;;20.10;80.70;;;;;;5047558;28;20665;-56
2023/02/22 09:35:13;;;;;;;1.77;1.67;;;20.10;80.70;;;;;;5048168;28;20207;-56
2023/02/22 09:37:43;;;;;;;1.50;1.40;;;20.10;80.90;;;;;;5045027;28;20195;-60
2023/02/22 09:40:16;;;;;;;4.80;3.97;;;20.10;80.70;;;;;;5036298;28;20481;-62
2023/02/22 09:42:52;;;;;;;6.13;4.75;;;20.10;78.80;;;;;;5044327;28;20599;-61
2023/02/22 09:45:23;;;;;;;5.82;5.38;;;19.70;76.50;;;;;;5037197;28;20705;-60
2023/02/22 09:47:55;;;;;;;6.93;5.50;;;19.50;76.50;;;;;;5047170;28;20680;-58
2023/02/22 09:50:26;;;;;;;5.53;3.40;;;19.40;76.20;;;;;;5038302;28;20203;-61
2023/02/22 09:52:56;;;;;;;3.50;3.20;;;19.50;77.40;;;;;;5043196;28;20202;-64
2023/02/22 09:55:33;;;;;;;3.60;2.95;;;19.70;77.70;;;;;;5044722;28;20214;-61
2023/02/22 09:58:02;;;;;;;2.90;2.70;;;19.80;77.80;;;;;;5041606;28;20222;-65
2023/02/22 10:00:32;;;;;;;3.20;2.90;;;19.90;77.90;;;;;;5041175;28;20220;-61
2023/02/22 10:03:12;;;;;;;3.88;2.20;;;20.00;77.90;;;;;;5048462;28;20277;-61
2023/02/22 10:05:43;;;;;;;2.47;2.17;;;20.00;77.90;;;;;;5048282;28;20218;-60
2023/02/22 10:08:13;;;;;;;3.28;2.13;;;20.00;78.00;;;;;;5047689;28;20196;-59
2023/02/22 10:10:44;;;;;;;2.70;2.35;;;20.00;78.00;;;;;;5045429;28;20203;-61
2023/02/22 10:13:21;;;;;;;2.53;2.33;;;20.10;78.10;;;;;;5044746;28;20228;-62
2023/02/22 10:15:54;;;;;;;2.30;2.10;;;20.10;78.20;;;;;;5048028;28;20658;-61
2023/02/22 10:19:07;;;;;;;2.72;2.05;;;20.10;78.20;;;;;;5039449;28;20569;-61
2023/02/22 10:22:06;;;;;;;2.88;2.25;;;20.10;78.20;;;;;;5028566;28;20231;-64
2023/02/22 10:24:44;;;;;;;2.00;1.80;;;20.10;78.20;;;;;;5020228;28;20191;-64
2023/02/22 10:27:17;;;;;;;2.15;1.90;;;20.10;78.30;;;;;;5044106;28;20195;-64
2023/02/22 10:29:48;;;;;;;2.30;1.98;;;20.10;78.30;;;;;;5036529;28;20203;-67
2023/02/22 10:32:18;;;;;;;2.50;2.30;;;20.10;78.30;;;;;;5038295;28;20207;-61
2023/02/22 10:34:48;;;;;;;2.50;2.30;;;20.20;78.50;;;;;;5046527;28;20207;-62
2023/02/22 10:37:24;;;;;;;5.25;2.15;;;20.20;78.50;;;;;;5046530;28;20277;-61
2023/02/22 10:39:56;;;;;;;2.88;2.08;;;20.20;78.60;;;;;;5040659;28;20202;-61
2023/02/22 10:42:26;;;;;;;2.25;2.05;;;20.20;78.60;;;;;;5047374;28;20691;-60
2023/02/22 10:44:52;;;;;;;2.28;1.85;;;20.10;78.40;;;;;;5044716;28;20203;-60
2023/02/22 10:47:20;;;;;;;3.25;2.17;;;20.20;78.60;;;;;;5045401;28;20659;-61
2023/02/22 10:49:51;;;;;;;1.70;1.60;;;20.20;78.70;;;;;;5039593;28;20199;-65
2023/02/22 10:52:25;;;;;;;4.35;2.25;;;20.20;79.50;;;;;;5043134;28;20196;-61
2023/02/22 10:54:55;;;;;;;2.20;2.00;;;20.20;78.70;;;;;;5047933;28;20221;-61
2023/02/22 10:57:25;;;;;;;2.75;2.55;;;20.20;78.70;;;;;;5037825;28;20203;-60
2023/02/22 10:59:55;;;;;;;3.00;2.20;;;20.20;78.70;;;;;;5045671;28;20199;-66
2023/02/22 11:02:27;;;;;;;2.30;2.10;;;20.20;78.80;;;;;;5045456;28;20203;-63
2023/02/22 11:04:56;;;;;;;2.80;2.20;;;20.20;78.80;;;;;;5039973;28;20204;-65
2023/02/22 11:07:27;;;;;;;2.55;2.30;;;20.20;78.90;;;;;;5043451;28;20199;-63
2023/02/22 11:09:55;;;;;;;3.15;2.30;;;20.20;79.60;;;;;;5046919;28;20365;-65
2023/02/22 11:12:28;;;;;;;3.00;2.33;;;20.20;78.90;;;;;;5046129;28;20191;-62
2023/02/22 11:14:55;;;;;;;2.67;2.30;;;20.20;78.90;;;;;;5044292;28;20199;-60
2023/02/22 11:17:30;;;;;;;3.00;2.73;;;20.20;78.90;;;;;;5047994;28;20461;-62
2023/02/22 11:19:59;;;;;;;2.45;2.25;;;20.20;79.00;;;;;;5039128;28;20470;-62
2023/02/22 11:22:30;;;;;;;5.13;3.33;;;20.20;79.00;;;;;;5038642;28;20239;-67
2023/02/22 11:25:00;;;;;;;5.03;3.00;;;20.20;79.30;;;;;;5046510;28;20203;-64
2023/02/22 11:27:32;;;;;;;5.75;2.70;;;20.20;79.60;;;;;;5049915;28;20191;-60
2023/02/22 11:30:12;;;;;;;3.45;2.60;;;20.10;79.90;;;;;;5039855;28;20690;-63
2023/02/22 11:32:45;;;;;;;4.32;3.10;;;20.20;80.60;;;;;;5043320;28;20219;-69
2023/02/22 11:35:26;;;;;;;5.00;2.97;;;20.20;80.80;;;;;;5050172;28;20216;-68
2023/02/22 11:38:09;;;;;;;3.60;2.70;;;20.30;80.70;;;;;;5040417;28;20192;-66
2023/02/22 11:40:35;;;;;;;2.80;2.50;;;20.30;80.70;;;;;;5043757;28;20234;-65
2023/02/22 11:43:10;;;;;;;5.68;3.03;;;20.30;80.60;;;;;;5040894;28;20215;-66
2023/02/22 11:45:38;;;;;;;5.00;2.67;;;20.40;80.70;;;;;;5038382;28;20659;-59
2023/02/22 11:48:07;;;;;;;2.92;2.63;;;20.40;81.30;;;;;;5039696;28;20951;-66
2023/02/22 11:50:45;;;;;;;4.00;2.43;;;20.40;81.00;;;;;;5049779;28;20667;-63
2023/02/22 11:53:26;;;;;;;5.37;2.70;;;20.40;81.30;;;;;;5048023;28;20458;-62
2023/02/22 11:56:13;;;;;;;4.23;2.40;;;20.50;81.50;;;;;;5045302;28;20469;-63
2023/02/22 11:58:46;;;;;;;3.50;2.83;;;20.50;81.40;;;;;;5050396;28;20453;-65
2023/02/22 12:01:21;;;;;;;3.70;2.93;;;20.50;81.50;;;;;;5046053;28;20482;-60
2023/02/22 12:04:19;;;;;;;4.07;3.37;;;20.50;81.70;;;;;;5049725;28;20462;-62
2023/02/22 12:06:55;;;;;;;4.10;3.03;;;20.50;81.80;;;;;;5047964;28;20555;-65
2023/02/22 12:09:32;;;;;;;3.10;2.80;;;20.60;81.80;;;;;;5044094;28;20195;-64
2023/02/22 12:12:08;;;;;;;2.90;2.60;;;20.60;81.90;;;;;;5049134;28;20494;-57
2023/02/22 12:14:44;;;;;;;3.28;2.97;;;20.60;82.00;;;;;;5041633;28;20462;-58
2023/02/22 12:17:22;;;;;;;2.53;2.30;;;20.60;82.10;;;;;;5039451;28;20196;-58
2023/02/22 12:19:52;;;;;;;5.80;2.97;;;20.60;82.00;;;;;;5041946;28;20466;-65
2023/02/22 12:22:24;;;;;;;3.65;3.22;;;20.60;82.10;;;;;;5047189;28;20226;-70
2023/02/22 12:24:59;;;;;;;3.47;3.17;;;20.60;82.20;;;;;;5033470;28;20208;-66
2023/02/22 12:27:30;;;;;;;4.60;3.07;;;20.60;82.10;;;;;;5048468;28;20225;-64
2023/02/22 12:30:03;;;;;;;3.60;2.90;;;20.60;82.40;;;;;;5046115;28;20459;-64
2023/02/22 12:32:36;;;;;;;3.80;2.92;;;20.60;82.40;;;;;;5046506;28;20545;-66
2023/02/22 12:35:09;;;;;;;3.77;3.10;;;20.60;82.70;;;;;;5049018;28;20207;-64
2023/02/22 12:37:50;;;;;;;3.60;3.17;;;20.70;82.70;;;;;;5049268;28;20469;-66
2023/02/22 12:40:26;;;;;;;3.80;3.00;;;20.70;82.70;;;;;;5048044;28;20540;-67
2023/02/22 12:42:59;;;;;;;4.40;3.17;;;20.70;82.70;;;;;;5045822;28;20466;-65
2023/02/22 12:45:33;;;;;;;4.80;3.40;;;20.70;82.70;;;;;;5044305;28;20980;-67
2023/02/22 12:48:17;;;;;;;4.07;2.77;;;20.70;82.70;;;;;;5046403;28;20495;-68
2023/02/22 12:50:45;;;;;;;3.33;3.03;;;20.70;82.70;;;;;;5046303;28;20541;-67
2023/02/22 12:53:20;;;;;;;2.88;2.45;;;20.70;82.70;;;;;;5047368;28;20464;-65
2023/02/22 12:55:52;;;;;;;3.83;2.53;;;20.70;82.70;;;;;;5043389;28;20208;-68
2023/02/22 12:58:25;;;;;;;3.57;3.27;;;20.80;82.80;;;;;;5050516;28;20438;-66
2023/02/22 13:01:00;;;;;;;3.60;2.77;;;20.70;82.70;;;;;;5055974;28;20501;-67
2023/02/22 13:03:36;;;;;;;3.40;3.10;;;20.80;82.90;;;;;;5042734;28;20473;-70